Time;durP1;ratioP1;P1;durP2;ratioP2;P2;SDS_P1;SDS_P2;PMS_P1;PMS_P2;Temp;Humidity;BMP_temperature;BMP_pressure;BME280_temperature;BME280_humidity;BME280_pressure;Samples;Min_cycle;Max_cycle;Signal;HPM_P1;HPM_P2
2023/10/18 00:01:16;;;;;;;;;;;;;;;;;;5045999;28;20015;-60
2023/10/18 00:03:42;;;;;;;;;;;;;;;;;;5052562;28;19919;-59
2023/10/18 00:06:21;;;;;;;;;;;;;;;;;;5035631;28;19917;-60
2023/10/18 00:08:47;;;;;;;;;;;;;;;;;;5053778;28;20003;-60
2023/10/18 00:11:12;;;;;;;;;;;;;;;;;;5042708;28;20007;-60
2023/10/18 00:13:38;;;;;;;;;;;;;;;;;;5049004;28;19916;-60
2023/10/18 00:16:05;;;;;;;;;;;;;;;;;;5051366;28;20494;-60
2023/10/18 00:18:30;;;;;;;;;;;;;;;;;;5053744;28;19961;-60
2023/10/18 00:20:56;;;;;;;;;;;;;;;;;;5034038;28;20004;-60
2023/10/18 00:23:23;;;;;;;;;;;;;;;;;;5038617;28;20384;-57
2023/10/18 00:25:48;;;;;;;;;;;;;;;;;;5053974;28;19913;-57
2023/10/18 00:28:14;;;;;;;;;;;;;;;;;;5045769;28;20372;-57
2023/10/18 00:30:40;;;;;;;;;;;;;;;;;;5051229;28;20003;-57
2023/10/18 00:33:06;;;;;;;;;;;;;;;;;;5053818;28;20346;-59
2023/10/18 00:35:32;;;;;;;;;;;;;;;;;;5050563;28;19917;-60
2023/10/18 00:37:58;;;;;;;;;;;;;;;;;;5049527;28;19917;-60
2023/10/18 00:40:33;;;;;;;;;;;;;;;;;;5053853;28;19924;-60
2023/10/18 00:43:03;;;;;;;;;;;;;;;;;;5054047;28;19935;-60
2023/10/18 00:45:29;;;;;;;;;;;;;;;;;;5053916;28;20304;-60
2023/10/18 00:47:57;;;;;;;;;;;;;;;;;;5053940;28;19923;-60
2023/10/18 00:50:27;;;;;;;;;;;;;;;;;;5052485;28;19920;-60
2023/10/18 00:52:53;;;;;;;;;;;;;;;;;;5051624;28;20323;-60
2023/10/18 00:55:19;;;;;;;;;;;;;;;;;;5052565;28;19919;-59
2023/10/18 00:57:47;;;;;;;;;;;;;;;;;;5045363;28;19912;-60
2023/10/18 01:00:19;;;;;;;;;;;;;;;;;;5053254;28;19908;-60
2023/10/18 01:02:48;;;;;;;;;;;;;;;;;;5053140;28;19917;-61
2023/10/18 01:05:14;;;;;;;;;;;;;;;;;;5052390;28;19913;-60
2023/10/18 01:07:40;;;;;;;;;;;;;;;;;;5051288;28;19921;-60
2023/10/18 01:10:07;;;;;;;;;;;;;;;;;;5042477;28;19967;-60
2023/10/18 01:12:34;;;;;;;;;;;;;;;;;;5048782;28;19921;-60
2023/10/18 01:15:00;;;;;;;;;;;;;;;;;;5046055;28;19920;-61
2023/10/18 01:17:26;;;;;;;;;;;;;;;;;;5044402;28;19995;-60
2023/10/18 01:19:53;;;;;;;;;;;;;;;;;;5046086;28;20012;-59
2023/10/18 01:22:19;;;;;;;;;;;;;;;;;;5049922;28;19924;-60
2023/10/18 01:24:45;;;;;;;;;;;;;;;;;;5051075;28;19966;-60
2023/10/18 01:27:12;;;;;;;;;;;;;;;;;;5038572;28;20283;-59
2023/10/18 01:29:38;;;;;;;;;;;;;;;;;;5052397;28;19916;-60
2023/10/18 01:32:04;;;;;;;;;;;;;;;;;;5053080;28;19913;-59
2023/10/18 01:34:31;;;;;;;;;;;;;;;;;;5052146;28;19920;-59
2023/10/18 01:36:57;;;;;;;;;;;;;;;;;;5052588;28;19960;-59
2023/10/18 01:39:28;;;;;;;;;;;;;;;;;;5052005;28;20001;-59
2023/10/18 01:41:54;;;;;;;;;;;;;;;;;;5050190;28;19928;-60
2023/10/18 01:44:35;;;;;;;;;;;;;;;;;;5049384;28;19916;-60
2023/10/18 01:47:06;;;;;;;;;;;;;;;;;;5047230;28;19921;-59
2023/10/18 01:49:32;;;;;;;;;;;;;;;;;;5047081;28;19913;-60
2023/10/18 01:51:59;;;;;;;;;;;;;;;;;;5051431;28;20470;-58
2023/10/18 01:54:25;;;;;;;;;;;;;;;;;;5048758;28;19919;-59
2023/10/18 01:56:53;;;;;;;;;;;;;;;;;;5046875;28;19913;-60
2023/10/18 01:59:19;;;;;;;;;;;;;;;;;;5033864;28;19917;-61
2023/10/18 02:01:45;;;;;;;;;;;;;;;;;;5049461;28;19925;-60
2023/10/18 02:04:19;;;;;;;;;;;;;;;;;;5039705;28;19913;-59
2023/10/18 02:06:47;;;;;;;;;;;;;;;;;;5052309;28;19913;-59
2023/10/18 02:09:13;;;;;;;;;;;;;;;;;;5052029;28;20403;-59
2023/10/18 02:11:39;;;;;;;;;;;;;;;;;;5050783;28;19960;-59
2023/10/18 02:14:06;;;;;;;;;;;;;;;;;;5050664;28;19924;-60
2023/10/18 02:16:33;;;;;;;;;;;;;;;;;;5048460;28;19967;-60
2023/10/18 02:18:59;;;;;;;;;;;;;;;;;;5045213;28;19916;-60
2023/10/18 02:21:26;;;;;;;;;;;;;;;;;;5047381;28;19913;-60
2023/10/18 02:23:52;;;;;;;;;;;;;;;;;;5052277;28;20011;-60
2023/10/18 02:26:30;;;;;;;;;;;;;;;;;;5051858;28;20435;-60
2023/10/18 02:28:56;;;;;;;;;;;;;;;;;;5054716;28;20014;-60
2023/10/18 02:31:22;;;;;;;;;;;;;;;;;;5046836;28;19909;-60
2023/10/18 02:33:48;;;;;;;;;;;;;;;;;;5051915;28;19920;-60
2023/10/18 02:36:20;;;;;;;;;;;;;;;;;;5050337;28;19919;-60
2023/10/18 02:38:46;;;;;;;;;;;;;;;;;;5051656;28;19948;-59
2023/10/18 02:41:17;;;;;;;;;;;;;;;;;;5047707;28;19959;-60
2023/10/18 02:43:45;;;;;;;;;;;;;;;;;;5033371;28;19913;-57
2023/10/18 02:46:11;;;;;;;;;;;;;;;;;;5051557;28;20266;-58
2023/10/18 02:48:37;;;;;;;;;;;;;;;;;;5050261;28;20007;-57
2023/10/18 02:51:06;;;;;;;;;;;;;;;;;;5051350;28;20007;-57
2023/10/18 02:53:34;;;;;;;;;;;;;;;;;;5050567;28;20007;-57
2023/10/18 02:56:04;;;;;;;;;;;;;;;;;;5050543;28;19944;-58
2023/10/18 02:58:32;;;;;;;;;;;;;;;;;;5048431;28;20663;-57
2023/10/18 03:01:05;;;;;;;;;;;;;;;;;;5054335;28;19975;-57
2023/10/18 03:03:31;;;;;;;;;;;;;;;;;;5055750;28;20285;-57
2023/10/18 03:05:58;;;;;;;;;;;;;;;;;;5054210;28;19920;-57
2023/10/18 03:08:24;;;;;;;;;;;;;;;;;;5054257;28;20265;-58
2023/10/18 03:10:51;;;;;;;;;;;;;;;;;;5053765;28;19970;-58
2023/10/18 03:13:18;;;;;;;;;;;;;;;;;;5053207;28;19912;-57
2023/10/18 03:15:54;;;;;;;;;;;;;;;;;;5055786;28;19909;-57
2023/10/18 03:18:24;;;;;;;;;;;;;;;;;;5055690;28;19920;-63
2023/10/18 03:20:53;;;;;;;;;;;;;;;;;;5049080;28;19917;-58
2023/10/18 03:23:19;;;;;;;;;;;;;;;;;;5042305;28;19925;-57
2023/10/18 03:25:45;;;;;;;;;;;;;;;;;;5035679;28;19972;-57
2023/10/18 03:28:13;;;;;;;;;;;;;;;;;;5055408;28;19916;-58
2023/10/18 03:30:45;;;;;;;;;;;;;;;;;;5055185;28;20292;-57
2023/10/18 03:33:12;;;;;;;;;;;;;;;;;;5055389;28;19928;-58
2023/10/18 03:35:43;;;;;;;;;;;;;;;;;;5054785;28;19967;-57
2023/10/18 03:38:17;;;;;;;;;;;;;;;;;;5043758;28;20000;-56
2023/10/18 03:40:48;;;;;;;;;;;;;;;;;;5045461;28;19925;-57
2023/10/18 03:43:15;;;;;;;;;;;;;;;;;;5051939;28;19916;-57
2023/10/18 03:48:28;;;;;;;;;;;;;;;;;;5055104;28;19916;-57
2023/10/18 03:50:55;;;;;;;;;;;;;;;;;;5054567;28;20400;-58
2023/10/18 03:53:21;;;;;;;;;;;;;;;;;;5055337;28;20323;-57
2023/10/18 03:55:49;;;;;;;;;;;;;;;;;;5042537;28;19924;-57
2023/10/18 03:58:22;;;;;;;;;;;;;;;;;;5049208;28;19920;-58
2023/10/18 04:00:48;;;;;;;;;;;;;;;;;;5050312;28;19953;-58
2023/10/18 04:03:20;;;;;;;;;;;;;;;;;;5038542;28;19987;-57
2023/10/18 04:05:46;;;;;;;;;;;;;;;;;;5053908;28;19913;-57
2023/10/18 04:08:15;;;;;;;;;;;;;;;;;;5051041;28;19912;-57
2023/10/18 04:10:41;;;;;;;;;;;;;;;;;;5045938;28;20044;-57
2023/10/18 04:13:12;;;;;;;;;;;;;;;;;;5049583;28;20000;-57
2023/10/18 04:15:39;;;;;;;;;;;;;;;;;;5049349;28;19948;-57
2023/10/18 04:20:34;;;;;;;;;;;;;;;;;;5051960;28;20055;-58
2023/10/18 04:23:02;;;;;;;;;;;;;;;;;;5052837;28;20011;-58
2023/10/18 04:25:30;;;;;;;;;;;;;;;;;;5046889;28;20348;-58
2023/10/18 04:27:59;;;;;;;;;;;;;;;;;;5045467;28;20422;-57
2023/10/18 04:30:25;;;;;;;;;;;;;;;;;;5051848;28;20619;-57
2023/10/18 04:32:58;;;;;;;;;;;;;;;;;;5053315;28;20017;-56
2023/10/18 04:35:29;;;;;;;;;;;;;;;;;;5045966;28;19920;-57
2023/10/18 04:37:55;;;;;;;;;;;;;;;;;;5049617;28;19923;-58
2023/10/18 04:40:26;;;;;;;;;;;;;;;;;;5040896;28;19917;-57
2023/10/18 04:42:54;;;;;;;;;;;;;;;;;;5049462;28;19925;-56
2023/10/18 04:45:23;;;;;;;;;;;;;;;;;;5051131;28;20274;-57
2023/10/18 04:47:49;;;;;;;;;;;;;;;;;;5046321;28;20625;-58
2023/10/18 04:50:18;;;;;;;;;;;;;;;;;;5052661;28;19909;-56
2023/10/18 04:52:47;;;;;;;;;;;;;;;;;;5049841;28;19913;-57
2023/10/18 04:55:14;;;;;;;;;;;;;;;;;;5044523;28;19915;-56
2023/10/18 04:57:40;;;;;;;;;;;;;;;;;;5048868;28;20313;-57
2023/10/18 05:00:21;;;;;;;;;;;;;;;;;;5050245;28;20415;-59
2023/10/18 05:02:51;;;;;;;;;;;;;;;;;;5048345;28;19945;-60
2023/10/18 05:05:17;;;;;;;;;;;;;;;;;;5040791;28;19913;-61
2023/10/18 05:07:47;;;;;;;;;;;;;;;;;;5040247;28;19909;-61
2023/10/18 05:10:17;;;;;;;;;;;;;;;;;;5040876;28;19936;-61
2023/10/18 05:13:19;;;;;;;;;;;;;;;;;;5049297;28;19912;-62
2023/10/18 05:15:35;;;;;;;;;;;;;;;;;;5042706;28;20914;-61
2023/10/18 05:18:15;;;;;;;;;;;;;;;;;;5037302;28;19959;-61
2023/10/18 05:20:47;;;;;;;;;;;;;;;;;;5050277;28;19923;-61
2023/10/18 05:23:19;;;;;;;;;;;;;;;;;;5046393;28;20021;-61
2023/10/18 05:25:45;;;;;;;;;;;;;;;;;;5039226;28;19913;-61
2023/10/18 05:28:24;;;;;;;;;;;;;;;;;;5044528;28;19915;-61
2023/10/18 05:36:29;;;;;;;;;;;;;;;;;;5050919;28;20281;-61
2023/10/18 05:38:55;;;;;;;;;;;;;;;;;;5050799;28;19915;-60
2023/10/18 05:43:54;;;;;;;;;;;;;;;;;;5052340;28;19912;-61
2023/10/18 05:46:21;;;;;;;;;;;;;;;;;;5048193;28;20372;-61
2023/10/18 05:48:47;;;;;;;;;;;;;;;;;;5046326;28;19924;-61
2023/10/18 05:54:08;;;;;;;;;;;;;;;;;;5038413;28;20364;-61
2023/10/18 05:56:36;;;;;;;;;;;;;;;;;;5051882;28;19966;-61
2023/10/18 06:01:46;;;;;;;;;;;;;;;;;;5036480;28;20107;-61
2023/10/18 06:04:14;;;;;;;;;;;;;;;;;;5044579;28;20048;-61
2023/10/18 06:06:40;;;;;;;;;;;;;;;;;;5051988;28;20365;-61
2023/10/18 06:09:11;;;;;;;;;;;;;;;;;;5048529;28;19948;-61
2023/10/18 06:11:36;;;;;;;;;;;;;;;;;;5051334;28;19920;-57
2023/10/18 06:14:05;;;;;;;;;;;;;;;;;;5051606;28;19909;-57
2023/10/18 06:16:34;;;;;;;;;;;;;;;;;;5050764;28;20395;-57
2023/10/18 06:19:00;;;;;;;;;;;;;;;;;;5049653;28;19939;-57
2023/10/18 06:21:26;;;;;;;;;;;;;;;;;;5051187;28;20051;-59
2023/10/18 06:23:55;;;;;;;;;;;;;;;;;;5050776;28;19979;-60
2023/10/18 06:26:30;;;;;;;;;;;;;;;;;;5049630;28;19967;-60
2023/10/18 06:29:00;;;;;;;;;;;;;;;;;;5051765;28;19955;-60
2023/10/18 06:31:26;;;;;;;;;;;;;;;;;;5051517;28;20007;-60
2023/10/18 06:33:55;;;;;;;;;;;;;;;;;;5050486;28;20372;-60
2023/10/18 06:36:22;;;;;;;;;;;;;;;;;;5055477;28;19909;-60
2023/10/18 06:38:47;;;;;;;;;;;;;;;;;;5055468;28;19909;-60
2023/10/18 06:41:21;;;;;;;;;;;;;;;;;;5052059;28;19960;-60
2023/10/18 06:43:47;;;;;;;;;;;;;;;;;;5042922;28;19944;-60
2023/10/18 06:46:13;;;;;;;;;;;;;;;;;;5055479;28;20013;-60
2023/10/18 06:48:39;;;;;;;;;;;;;;;;;;5055413;28;20333;-59
2023/10/18 06:51:17;;;;;;;;;;;;;;;;;;5053071;28;19997;-60
2023/10/18 06:53:47;;;;;;;;;;;;;;;;;;5053962;28;19972;-61
2023/10/18 06:56:19;;;;;;;;;;;;;;;;;;5054720;28;20349;-61
2023/10/18 06:58:45;;;;;;;;;;;;;;;;;;5051983;28;19959;-60
2023/10/18 07:01:19;;;;;;;;;;;;;;;;;;5049058;28;19960;-60
2023/10/18 07:03:45;;;;;;;;;;;;;;;;;;5053676;28;19925;-59
2023/10/18 07:06:24;;;;;;;;;;;;;;;;;;5054913;28;19924;-60
2023/10/18 07:08:49;;;;;;;;;;;;;;;;;;5055157;28;20365;-60
2023/10/18 07:11:18;;;;;;;;;;;;;;;;;;5054704;28;19916;-60
2023/10/18 07:13:47;;;;;;;;;;;;;;;;;;5055229;28;19913;-60
2023/10/18 07:16:18;;;;;;;;;;;;;;;;;;5047562;28;19913;-59
2023/10/18 07:18:44;;;;;;;;;;;;;;;;;;5055107;28;19991;-60
2023/10/18 07:21:10;;;;;;;;;;;;;;;;;;5052953;28;19912;-60
2023/10/18 07:23:36;;;;;;;;;;;;;;;;;;5054116;28;20401;-57
2023/10/18 07:26:02;;;;;;;;;;;;;;;;;;5054811;28;19936;-57
2023/10/18 07:28:29;;;;;;;;;;;;;;;;;;5054514;28;19919;-57
2023/10/18 07:30:55;;;;;;;;;;;;;;;;;;5052297;28;19931;-58
2023/10/18 07:33:23;;;;;;;;;;;;;;;;;;5054732;28;19912;-59
2023/10/18 07:35:49;;;;;;;;;;;;;;;;;;5054620;28;19909;-59
2023/10/18 07:38:25;;;;;;;;;;;;;;;;;;5052810;28;20278;-60
2023/10/18 07:40:54;;;;;;;;;;;;;;;;;;5036200;28;20392;-59
2023/10/18 07:43:20;;;;;;;;;;;;;;;;;;5054237;28;19983;-60
2023/10/18 07:45:47;;;;;;;;;;;;;;;;;;5052504;28;20070;-60
2023/10/18 07:48:16;;;;;;;;;;;;;;;;;;5052931;28;20276;-59
2023/10/18 07:50:42;;;;;;;;;;;;;;;;;;5053798;28;20394;-60
2023/10/18 07:53:11;;;;;;;;;;;;;;;;;;5054146;28;19909;-60
2023/10/18 07:55:37;;;;;;;;;;;;;;;;;;5052496;28;20008;-59
2023/10/18 07:58:06;;;;;;;;;;;;;;;;;;5053929;28;20261;-59
2023/10/18 08:00:35;;;;;;;;;;;;;;;;;;5053642;28;19992;-60
2023/10/18 08:03:01;;;;;;;;;;;;;;;;;;5050138;28;19925;-60
2023/10/18 08:05:30;;;;;;;;;;;;;;;;;;5053916;28;19955;-60
2023/10/18 08:07:57;;;;;;;;;;;;;;;;;;5054096;28;20103;-60
2023/10/18 08:10:23;;;;;;;;;;;;;;;;;;5053526;28;19909;-60
2023/10/18 08:13:03;;;;;;;;;;;;;;;;;;5053582;28;19963;-60
2023/10/18 08:15:35;;;;;;;;;;;;;;;;;;5053882;28;19956;-60
2023/10/18 08:18:14;;;;;;;;;;;;;;;;;;5053998;28;19955;-60
2023/10/18 08:20:55;;;;;;;;;;;;;;;;;;5048181;28;19917;-60
2023/10/18 08:26:03;;;;;;;;;;;;;;;;;;5052253;28;19956;-60
2023/10/18 08:28:38;;;;;;;;;;;;;;;;;;5048911;28;19999;-60
2023/10/18 08:31:04;;;;;;;;;;;;;;;;;;5053195;28;19913;-60
2023/10/18 08:33:30;;;;;;;;;;;;;;;;;;5053254;28;19948;-62
2023/10/18 08:35:58;;;;;;;;;;;;;;;;;;5051709;28;19971;-61
2023/10/18 08:38:26;;;;;;;;;;;;;;;;;;5051943;28;19948;-61
2023/10/18 08:41:05;;;;;;;;;;;;;;;;;;5053221;28;19931;-62
2023/10/18 08:43:31;;;;;;;;;;;;;;;;;;5053330;28;19924;-59
2023/10/18 08:45:57;;;;;;;;;;;;;;;;;;5053026;28;19912;-59
2023/10/18 08:48:29;;;;;;;;;;;;;;;;;;5053185;28;19936;-60
2023/10/18 08:50:55;;;;;;;;;;;;;;;;;;5045345;28;19913;-60
2023/10/18 08:53:22;;;;;;;;;;;;;;;;;;5050657;28;19916;-58
2023/10/18 08:55:51;;;;;;;;;;;;;;;;;;5051805;28;19974;-60
2023/10/18 08:58:22;;;;;;;;;;;;;;;;;;5052827;28;19919;-59
2023/10/18 09:03:21;;;;;;;;;;;;;;;;;;5052826;28;19998;-59
2023/10/18 09:05:48;;;;;;;;;;;;;;;;;;5052844;28;19909;-61
2023/10/18 09:08:26;;;;;;;;;;;;;;;;;;5051225;28;19920;-60
2023/10/18 09:10:55;;;;;;;;;;;;;;;;;;5050871;28;20314;-60
2023/10/18 09:16:01;;;;;;;;;;;;;;;;;;5052665;28;20365;-60
2023/10/18 09:18:27;;;;;;;;;;;;;;;;;;5052715;28;19999;-60
2023/10/18 09:20:56;;;;;;;;;;;;;;;;;;5052198;28;19951;-61
2023/10/18 09:23:24;;;;;;;;;;;;;;;;;;5050734;28;20023;-59
2023/10/18 09:26:10;;;;;;;;;;;;;;;;;;5050478;28;19996;-58
2023/10/18 09:28:36;;;;;;;;;;;;;;;;;;5048308;28;19912;-59
2023/10/18 09:31:02;;;;;;;;;;;;;;;;;;5052185;28;19944;-59
2023/10/18 09:33:32;;;;;;;;;;;;;;;;;;5052271;28;19999;-59
2023/10/18 09:36:01;;;;;;;;;;;;;;;;;;5052050;28;19913;-60
2023/10/18 09:38:28;;;;;;;;;;;;;;;;;;5050471;28;20024;-59
2023/10/18 09:40:55;;;;;;;;;;;;;;;;;;5052346;28;19908;-59
2023/10/18 09:43:21;;;;;;;;;;;;;;;;;;5051319;28;20391;-59
2023/10/18 09:45:47;;;;;;;;;;;;;;;;;;5051557;28;20000;-60
2023/10/18 09:48:13;;;;;;;;;;;;;;;;;;5051960;28;19915;-60
2023/10/18 09:50:39;;;;;;;;;;;;;;;;;;5051275;28;19954;-60
2023/10/18 09:53:05;;;;;;;;;;;;;;;;;;5052313;28;19908;-60
2023/10/18 09:55:31;;;;;;;;;;;;;;;;;;5050286;28;20012;-60
2023/10/18 09:57:59;;;;;;;;;;;;;;;;;;5050419;28;19919;-60
2023/10/18 10:00:27;;;;;;;;;;;;;;;;;;5049906;28;20356;-60
2023/10/18 10:02:56;;;;;;;;;;;;;;;;;;5051736;28;20368;-59
2023/10/18 10:05:25;;;;;;;;;;;;;;;;;;5051846;28;19913;-60
2023/10/18 10:07:51;;;;;;;;;;;;;;;;;;5051441;28;19927;-60
2023/10/18 10:10:19;;;;;;;;;;;;;;;;;;5049509;28;20421;-61
2023/10/18 10:12:44;;;;;;;;;;;;;;;;;;5048412;28;19975;-60
2023/10/18 10:15:13;;;;;;;;;;;;;;;;;;5042865;28;19960;-60
2023/10/18 10:17:41;;;;;;;;;;;;;;;;;;5051069;28;19959;-60
2023/10/18 10:20:10;;;;;;;;;;;;;;;;;;5049446;28;19921;-61
2023/10/18 10:22:37;;;;;;;;;;;;;;;;;;5049784;28;19917;-61
2023/10/18 10:25:11;;;;;;;;;;;;;;;;;;5045561;28;19952;-60
2023/10/18 10:32:47;;;;;;;;;;;;;;;;;;5049817;28;20022;-61
2023/10/18 10:35:17;;;;;;;;;;;;;;;;;;5051269;28;19942;-60
2023/10/18 10:37:42;;;;;;;;;;;;;;;;;;5051466;28;20352;-60
2023/10/18 10:42:53;;;;;;;;;;;;;;;;;;5051239;28;20265;-60
2023/10/18 10:45:23;;;;;;;;;;;;;;;;;;5049851;28;19956;-60
2023/10/18 10:47:50;;;;;;;;;;;;;;;;;;5049764;28;19924;-60
2023/10/18 10:50:16;;;;;;;;;;;;;;;;;;5050831;28;19908;-61
2023/10/18 10:52:44;;;;;;;;;;;;;;;;;;5050578;28;19974;-61
2023/10/18 10:55:13;;;;;;;;;;;;;;;;;;5051017;28;19909;-60
2023/10/18 10:57:43;;;;;;;;;;;;;;;;;;5051416;28;20272;-61
2023/10/18 11:02:54;;;;;;;;;;;;;;;;;;5047974;28;19924;-58
2023/10/18 11:05:21;;;;;;;;;;;;;;;;;;5051036;28;19913;-59
2023/10/18 11:07:47;;;;;;;;;;;;;;;;;;5049302;28;20113;-58
2023/10/18 11:10:16;;;;;;;;;;;;;;;;;;5049311;28;19956;-58
2023/10/18 11:12:45;;;;;;;;;;;;;;;;;;5040527;28;20381;-57
2023/10/18 11:15:27;;;;;;;;;;;;;;;;;;5051132;28;19913;-57
2023/10/18 11:18:09;;;;;;;;;;;;;;;;;;5038808;28;20276;-58
2023/10/18 11:20:48;;;;;;;;;;;;;;;;;;5049388;28;20607;-56
2023/10/18 11:23:14;;;;;;;;;;;;;;;;;;5051609;28;19916;-59
2023/10/18 11:25:41;;;;;;;;;;;;;;;;;;5054853;28;20245;-57
2023/10/18 11:28:20;;;;;;;;;;;;;;;;;;5054673;28;20011;-59
2023/10/18 11:30:46;;;;;;;;;;;;;;;;;;5054391;28;19920;-58
2023/10/18 11:33:15;;;;;;;;;;;;;;;;;;5054811;28;20257;-59
2023/10/18 11:38:09;;;;;;;;;;;;;;;;;;5053141;28;19916;-58
2023/10/18 11:40:40;;;;;;;;;;;;;;;;;;5054204;28;20254;-58
2023/10/18 11:43:09;;;;;;;;;;;;;;;;;;5054117;28;19913;-59
2023/10/18 11:45:36;;;;;;;;;;;;;;;;;;5052999;28;19936;-58
2023/10/18 11:48:02;;;;;;;;;;;;;;;;;;5054495;28;20395;-58
2023/10/18 11:50:28;;;;;;;;;;;;;;;;;;5053842;28;19909;-59
2023/10/18 11:52:54;;;;;;;;;;;;;;;;;;5050132;28;20008;-59
2023/10/18 11:55:20;;;;;;;;;;;;;;;;;;5052609;28;19924;-58
2023/10/18 11:57:46;;;;;;;;;;;;;;;;;;5048497;28;19917;-58
2023/10/18 12:02:50;;;;;;;;;;;;;;;;;;5050458;28;20379;-60
2023/10/18 12:05:17;;;;;;;;;;;;;;;;;;5052443;28;19967;-59
2023/10/18 12:07:46;;;;;;;;;;;;;;;;;;5053734;28;19909;-59
2023/10/18 12:10:17;;;;;;;;;;;;;;;;;;5042662;28;20344;-59
2023/10/18 12:12:43;;;;;;;;;;;;;;;;;;5045432;28;19913;-59
2023/10/18 12:15:09;;;;;;;;;;;;;;;;;;5034866;28;19995;-60
2023/10/18 12:17:35;;;;;;;;;;;;;;;;;;5046083;28;20071;-60
2023/10/18 12:20:07;;;;;;;;;;;;;;;;;;5037360;28;20024;-60
2023/10/18 12:22:36;;;;;;;;;;;;;;;;;;5049604;28;23668;-60
2023/10/18 12:25:02;;;;;;;;;;;;;;;;;;5050151;28;20284;-58
2023/10/18 12:27:34;;;;;;;;;;;;;;;;;;5051911;28;19917;-57
2023/10/18 12:30:09;;;;;;;;;;;;;;;;;;5035659;28;19959;-58
2023/10/18 12:32:42;;;;;;;;;;;;;;;;;;5044954;28;19948;-57
2023/10/18 12:35:13;;;;;;;;;;;;;;;;;;5052607;28;19947;-58
2023/10/18 12:37:40;;;;;;;;;;;;;;;;;;5051872;28;19999;-58
2023/10/18 12:40:14;;;;;;;;;;;;;;;;;;5049175;28;20311;-58
2023/10/18 12:42:40;;;;;;;;;;;;;;;;;;5053406;28;20301;-58
2023/10/18 12:45:09;;;;;;;;;;;;;;;;;;5046493;28;19916;-58
2023/10/18 12:47:35;;;;;;;;;;;;;;;;;;5051151;28;19913;-58
2023/10/18 12:50:05;;;;;;;;;;;;;;;;;;5046189;28;19995;-57
2023/10/18 12:55:05;;;;;;;;;;;;;;;;;;5051650;28;19936;-58
2023/10/18 12:57:34;;;;;;;;;;;;;;;;;;5048549;28;19917;-58
2023/10/18 13:00:11;;;;;;;;;;;;;;;;;;5042958;28;20280;-58
2023/10/18 13:02:50;;;;;;;;;;;;;;;;;;5051619;28;19921;-58
2023/10/18 13:05:17;;;;;;;;;;;;;;;;;;5052716;28;19943;-59
2023/10/18 13:07:45;;;;;;;;;;;;;;;;;;5051255;28;20353;-58
2023/10/18 13:10:11;;;;;;;;;;;;;;;;;;5050350;28;20269;-58
2023/10/18 13:12:53;;;;;;;;;;;;;;;;;;5049847;28;20411;-58
2023/10/18 13:15:19;;;;;;;;;;;;;;;;;;5045329;28;19938;-59
2023/10/18 13:17:45;;;;;;;;;;;;;;;;;;5052490;28;19920;-58
2023/10/18 13:20:15;;;;;;;;;;;;;;;;;;5050438;28;19944;-57
2023/10/18 13:22:41;;;;;;;;;;;;;;;;;;5042970;28;20015;-61
2023/10/18 13:25:08;;;;;;;;;;;;;;;;;;5052094;28;20000;-61
2023/10/18 13:27:37;;;;;;;;;;;;;;;;;;5048633;28;19925;-61
2023/10/18 13:30:31;;;;;;;;;;;;;;;;;;5042602;28;19912;-61
2023/10/18 13:32:50;;;;;;;;;;;;;;;;;;5045663;28;19928;-60
2023/10/18 13:35:16;;;;;;;;;;;;;;;;;;5041760;28;20007;-60
2023/10/18 13:37:43;;;;;;;;;;;;;;;;;;5051983;28;20408;-60
2023/10/18 13:40:09;;;;;;;;;;;;;;;;;;5046300;28;19917;-60
2023/10/18 13:42:35;;;;;;;;;;;;;;;;;;5046161;28;20269;-61
2023/10/18 13:45:01;;;;;;;;;;;;;;;;;;5045128;28;19917;-60
2023/10/18 13:47:27;;;;;;;;;;;;;;;;;;5046912;28;19965;-60
2023/10/18 13:49:55;;;;;;;;;;;;;;;;;;5048772;28;19952;-60
2023/10/18 13:52:21;;;;;;;;;;;;;;;;;;5045537;28;19938;-59
2023/10/18 13:54:47;;;;;;;;;;;;;;;;;;5046869;28;19919;-63
2023/10/18 13:57:16;;;;;;;;;;;;;;;;;;5045118;28;19927;-60
2023/10/18 13:59:43;;;;;;;;;;;;;;;;;;5047670;28;20307;-62
2023/10/18 14:02:09;;;;;;;;;;;;;;;;;;5046666;28;19925;-62
2023/10/18 14:04:46;;;;;;;;;;;;;;;;;;5044167;28;20364;-62
2023/10/18 14:07:12;;;;;;;;;;;;;;;;;;5049967;28;21252;-62
2023/10/18 14:09:38;;;;;;;;;;;;;;;;;;5045031;28;20000;-61
2023/10/18 14:12:04;;;;;;;;;;;;;;;;;;5047147;28;19956;-61
2023/10/18 14:14:32;;;;;;;;;;;;;;;;;;5047486;28;19917;-62
2023/10/18 14:16:58;;;;;;;;;;;;;;;;;;5047667;28;19920;-62
2023/10/18 14:19:24;;;;;;;;;;;;;;;;;;5039617;28;19943;-61
2023/10/18 14:21:50;;;;;;;;;;;;;;;;;;5038674;28;19913;-60
2023/10/18 14:24:21;;;;;;;;;;;;;;;;;;5041677;28;19968;-58
2023/10/18 14:26:48;;;;;;;;;;;;;;;;;;5046752;28;19959;-58
2023/10/18 14:29:14;;;;;;;;;;;;;;;;;;5045504;28;20349;-60
2023/10/18 14:31:40;;;;;;;;;;;;;;;;;;5036899;28;19995;-61
2023/10/18 14:34:07;;;;;;;;;;;;;;;;;;5043922;28;19912;-61
2023/10/18 14:36:32;;;;;;;;;;;;;;;;;;5047390;28;19921;-61
2023/10/18 14:38:58;;;;;;;;;;;;;;;;;;5047305;28;19951;-61
2023/10/18 14:41:24;;;;;;;;;;;;;;;;;;5037783;28;19960;-61
2023/10/18 14:43:56;;;;;;;;;;;;;;;;;;5043138;28;20591;-61
2023/10/18 14:46:27;;;;;;;;;;;;;;;;;;5045505;28;19955;-61
2023/10/18 14:48:56;;;;;;;;;;;;;;;;;;5037216;28;19924;-60
2023/10/18 14:51:24;;;;;;;;;;;;;;;;;;5045082;28;20317;-61
2023/10/18 14:53:51;;;;;;;;;;;;;;;;;;5038148;28;19913;-60
2023/10/18 14:56:16;;;;;;;;;;;;;;;;;;5042028;28;20272;-61
2023/10/18 14:58:42;;;;;;;;;;;;;;;;;;5046188;28;19913;-61
2023/10/18 15:01:08;;;;;;;;;;;;;;;;;;5049650;28;20023;-60
2023/10/18 15:03:34;;;;;;;;;;;;;;;;;;5053827;28;20360;-61
2023/10/18 15:06:00;;;;;;;;;;;;;;;;;;5049731;28;19912;-60
2023/10/18 15:08:26;;;;;;;;;;;;;;;;;;5052779;28;19963;-61
2023/10/18 15:10:52;;;;;;;;;;;;;;;;;;5045820;28;20015;-60
2023/10/18 15:13:18;;;;;;;;;;;;;;;;;;5049524;28;19917;-61
2023/10/18 15:15:45;;;;;;;;;;;;;;;;;;5048881;28;20429;-60
2023/10/18 15:18:11;;;;;;;;;;;;;;;;;;5050243;28;19921;-60
2023/10/18 15:20:37;;;;;;;;;;;;;;;;;;5044989;28;19959;-60
2023/10/18 15:23:05;;;;;;;;;;;;;;;;;;5046521;28;19924;-61
2023/10/18 15:25:31;;;;;;;;;;;;;;;;;;5045590;28;19921;-61
2023/10/18 15:27:57;;;;;;;;;;;;;;;;;;5044893;28;19913;-60
2023/10/18 15:30:24;;;;;;;;;;;;;;;;;;5047726;28;19967;-60
2023/10/18 15:32:52;;;;;;;;;;;;;;;;;;5048985;28;22573;-58
2023/10/18 15:35:18;;;;;;;;;;;;;;;;;;5049299;28;19991;-58
2023/10/18 15:37:44;;;;;;;;;;;;;;;;;;5052242;28;20058;-59
2023/10/18 15:40:16;;;;;;;;;;;;;;;;;;5051957;28;19952;-58
2023/10/18 15:42:42;;;;;;;;;;;;;;;;;;5050010;28;19921;-65
2023/10/18 15:45:11;;;;;;;;;;;;;;;;;;5048710;28;19959;-60
2023/10/18 15:47:37;;;;;;;;;;;;;;;;;;5049879;28;20436;-60
2023/10/18 15:50:06;;;;;;;;;;;;;;;;;;5046618;28;20300;-60
2023/10/18 15:52:35;;;;;;;;;;;;;;;;;;5046951;28;19921;-60
2023/10/18 15:55:01;;;;;;;;;;;;;;;;;;5046110;28;19913;-60
2023/10/18 15:57:27;;;;;;;;;;;;;;;;;;5040155;28;20392;-60
2023/10/18 15:59:52;;;;;;;;;;;;;;;;;;5045496;28;19913;-60
2023/10/18 16:02:18;;;;;;;;;;;;;;;;;;5045564;28;20400;-59
2023/10/18 16:04:45;;;;;;;;;;;;;;;;;;5042891;28;20043;-60
2023/10/18 16:07:11;;;;;;;;;;;;;;;;;;5041653;28;19921;-60
2023/10/18 16:09:42;;;;;;;;;;;;;;;;;;5041773;28;19920;-60
2023/10/18 16:12:07;;;;;;;;;;;;;;;;;;5046709;28;19925;-60
2023/10/18 16:14:33;;;;;;;;;;;;;;;;;;5045479;28;20050;-60
2023/10/18 16:17:02;;;;;;;;;;;;;;;;;;5047020;28;20438;-60
2023/10/18 16:19:28;;;;;;;;;;;;;;;;;;5048719;28;20603;-60
2023/10/18 16:21:54;;;;;;;;;;;;;;;;;;5044583;28;20039;-60
2023/10/18 16:24:22;;;;;;;;;;;;;;;;;;5050175;28;19928;-60
2023/10/18 16:26:49;;;;;;;;;;;;;;;;;;5050990;28;19917;-60
2023/10/18 16:29:15;;;;;;;;;;;;;;;;;;5049474;28;19916;-60
2023/10/18 16:31:43;;;;;;;;;;;;;;;;;;5046998;28;19974;-60
2023/10/18 16:34:09;;;;;;;;;;;;;;;;;;5044215;28;20327;-60
2023/10/18 16:36:35;;;;;;;;;;;;;;;;;;5051241;28;19948;-60
2023/10/18 16:39:03;;;;;;;;;;;;;;;;;;5048031;28;19931;-60
2023/10/18 16:41:30;;;;;;;;;;;;;;;;;;5044613;28;20007;-58
2023/10/18 16:43:56;;;;;;;;;;;;;;;;;;5045809;28;20383;-58
2023/10/18 16:46:22;;;;;;;;;;;;;;;;;;5046913;28;19913;-58
2023/10/18 16:48:49;;;;;;;;;;;;;;;;;;5048504;28;19920;-59
2023/10/18 16:51:15;;;;;;;;;;;;;;;;;;5044843;28;19920;-57
2023/10/18 16:53:41;;;;;;;;;;;;;;;;;;5048212;28;19921;-59
2023/10/18 16:56:08;;;;;;;;;;;;;;;;;;5050091;28;19917;-60
2023/10/18 16:58:34;;;;;;;;;;;;;;;;;;5051391;28;20387;-60
2023/10/18 17:01:00;;;;;;;;;;;;;;;;;;5049954;28;19995;-59
2023/10/18 17:03:27;;;;;;;;;;;;;;;;;;5044804;28;19931;-59
2023/10/18 17:05:53;;;;;;;;;;;;;;;;;;5049521;28;19913;-59
2023/10/18 17:08:19;;;;;;;;;;;;;;;;;;5047128;28;20446;-60
2023/10/18 17:10:46;;;;;;;;;;;;;;;;;;5042763;28;20364;-58
2023/10/18 17:13:12;;;;;;;;;;;;;;;;;;5037196;28;19913;-59
2023/10/18 17:15:38;;;;;;;;;;;;;;;;;;5045575;28;20009;-59
2023/10/18 17:18:06;;;;;;;;;;;;;;;;;;5040051;28;19919;-59
2023/10/18 17:20:32;;;;;;;;;;;;;;;;;;5037213;28;19943;-59
2023/10/18 17:22:58;;;;;;;;;;;;;;;;;;5050168;28;19939;-59
2023/10/18 17:25:24;;;;;;;;;;;;;;;;;;5042527;28;19916;-59
2023/10/18 17:27:50;;;;;;;;;;;;;;;;;;5044016;28;20399;-61
2023/10/18 17:30:20;;;;;;;;;;;;;;;;;;5048931;28;19917;-59
2023/10/18 17:32:46;;;;;;;;;;;;;;;;;;5051320;28;19912;-59
2023/10/18 17:35:12;;;;;;;;;;;;;;;;;;5049827;28;19955;-59
2023/10/18 17:37:40;;;;;;;;;;;;;;;;;;5041360;28;19913;-59